sensor_id;sensor_type;location;lat;lon;timestamp;P1;durP1;ratioP1;P2;durP2;ratioP2
22610;SDS011;11472;45.494;12.142;2022-07-29T00:00:01;9.60;;;5.50;;
22610;SDS011;11472;45.494;12.142;2022-07-29T00:01:00;9.60;;;5.50;;
22610;SDS011;11472;45.494;12.142;2022-07-29T00:02:00;9.60;;;5.50;;
22610;SDS011;11472;45.494;12.142;2022-07-29T00:03:01;9.60;;;5.50;;
22610;SDS011;11472;45.494;12.142;2022-07-29T00:04:00;8.20;;;5.50;;
22610;SDS011;11472;45.494;12.142;2022-07-29T00:05:01;8.20;;;5.50;;
22610;SDS011;11472;45.494;12.142;2022-07-29T00:06:01;8.20;;;5.50;;
22610;SDS011;11472;45.494;12.142;2022-07-29T00:07:00;8.20;;;5.50;;
22610;SDS011;11472;45.494;12.142;2022-07-29T00:08:00;8.20;;;5.50;;
22610;SDS011;11472;45.494;12.142;2022-07-29T00:09:00;8.20;;;5.50;;
22610;SDS011;11472;45.494;12.142;2022-07-29T00:10:00;8.20;;;5.50;;
22610;SDS011;11472;45.494;12.142;2022-07-29T00:11:00;8.20;;;5.50;;
22610;SDS011;11472;45.494;12.142;2022-07-29T00:12:01;8.20;;;5.50;;
22610;SDS011;11472;45.494;12.142;2022-07-29T00:13:01;8.20;;;5.50;;
22610;SDS011;11472;45.494;12.142;2022-07-29T00:14:00;8.20;;;5.50;;
22610;SDS011;11472;45.494;12.142;2022-07-29T00:15:00;8.20;;;5.50;;
22610;SDS011;11472;45.494;12.142;2022-07-29T00:16:04;8.20;;;5.50;;
22610;SDS011;11472;45.494;12.142;2022-07-29T00:17:00;8.20;;;5.50;;
22610;SDS011;11472;45.494;12.142;2022-07-29T00:18:00;8.20;;;5.50;;
22610;SDS011;11472;45.494;12.142;2022-07-29T00:19:02;8.60;;;5.90;;
22610;SDS011;11472;45.494;12.142;2022-07-29T00:20:00;8.60;;;5.90;;
22610;SDS011;11472;45.494;12.142;2022-07-29T00:21:00;8.60;;;5.90;;
22610;SDS011;11472;45.494;12.142;2022-07-29T00:22:01;8.60;;;5.90;;
22610;SDS011;11472;45.494;12.142;2022-07-29T00:23:00;8.60;;;5.90;;
22610;SDS011;11472;45.494;12.142;2022-07-29T00:24:00;8.60;;;5.90;;
22610;SDS011;11472;45.494;12.142;2022-07-29T00:25:00;8.60;;;5.90;;
22610;SDS011;11472;45.494;12.142;2022-07-29T00:26:00;8.60;;;5.90;;
22610;SDS011;11472;45.494;12.142;2022-07-29T00:27:00;8.60;;;5.90;;
22610;SDS011;11472;45.494;12.142;2022-07-29T00:28:00;8.60;;;5.90;;
22610;SDS011;11472;45.494;12.142;2022-07-29T00:29:10;8.60;;;5.90;;
22610;SDS011;11472;45.494;12.142;2022-07-29T00:30:00;8.60;;;5.90;;
22610;SDS011;11472;45.494;12.142;2022-07-29T00:31:00;8.60;;;5.90;;
22610;SDS011;11472;45.494;12.142;2022-07-29T00:32:01;8.60;;;5.90;;
22610;SDS011;11472;45.494;12.142;2022-07-29T00:33:00;8.60;;;5.90;;
22610;SDS011;11472;45.494;12.142;2022-07-29T00:34:00;9.70;;;6.00;;
22610;SDS011;11472;45.494;12.142;2022-07-29T00:35:10;9.70;;;6.00;;
22610;SDS011;11472;45.494;12.142;2022-07-29T00:36:00;9.70;;;6.00;;
22610;SDS011;11472;45.494;12.142;2022-07-29T00:37:00;9.70;;;6.00;;
22610;SDS011;11472;45.494;12.142;2022-07-29T00:38:00;9.70;;;6.00;;
22610;SDS011;11472;45.494;12.142;2022-07-29T00:39:00;9.70;;;6.00;;
22610;SDS011;11472;45.494;12.142;2022-07-29T00:40:00;9.70;;;6.00;;
22610;SDS011;11472;45.494;12.142;2022-07-29T00:41:00;9.70;;;6.00;;
22610;SDS011;11472;45.494;12.142;2022-07-29T00:42:03;9.70;;;6.00;;
22610;SDS011;11472;45.494;12.142;2022-07-29T00:43:01;9.70;;;6.00;;
22610;SDS011;11472;45.494;12.142;2022-07-29T00:44:00;9.70;;;6.00;;
22610;SDS011;11472;45.494;12.142;2022-07-29T00:45:00;9.70;;;6.00;;
22610;SDS011;11472;45.494;12.142;2022-07-29T00:46:00;9.70;;;6.00;;
22610;SDS011;11472;45.494;12.142;2022-07-29T00:47:00;9.70;;;6.00;;
22610;SDS011;11472;45.494;12.142;2022-07-29T00:48:01;9.70;;;6.00;;
22610;SDS011;11472;45.494;12.142;2022-07-29T00:49:00;9.90;;;5.60;;
22610;SDS011;11472;45.494;12.142;2022-07-29T00:50:00;9.90;;;5.60;;
22610;SDS011;11472;45.494;12.142;2022-07-29T00:51:02;9.90;;;5.60;;
22610;SDS011;11472;45.494;12.142;2022-07-29T00:52:02;9.90;;;5.60;;
22610;SDS011;11472;45.494;12.142;2022-07-29T00:53:01;9.90;;;5.60;;
22610;SDS011;11472;45.494;12.142;2022-07-29T00:54:00;9.90;;;5.60;;
22610;SDS011;11472;45.494;12.142;2022-07-29T00:55:04;9.90;;;5.60;;
22610;SDS011;11472;45.494;12.142;2022-07-29T00:56:00;9.90;;;5.60;;
22610;SDS011;11472;45.494;12.142;2022-07-29T00:57:00;9.90;;;5.60;;
22610;SDS011;11472;45.494;12.142;2022-07-29T00:58:00;9.90;;;5.60;;
22610;SDS011;11472;45.494;12.142;2022-07-29T00:59:00;9.90;;;5.60;;
22610;SDS011;11472;45.494;12.142;2022-07-29T01:00:00;9.90;;;5.60;;
22610;SDS011;11472;45.494;12.142;2022-07-29T01:01:00;9.90;;;5.60;;
22610;SDS011;11472;45.494;12.142;2022-07-29T01:02:01;9.90;;;5.60;;
22610;SDS011;11472;45.494;12.142;2022-07-29T01:03:00;9.90;;;5.60;;
22610;SDS011;11472;45.494;12.142;2022-07-29T01:04:00;5.80;;;3.90;;
22610;SDS011;11472;45.494;12.142;2022-07-29T01:05:04;5.80;;;3.90;;
22610;SDS011;11472;45.494;12.142;2022-07-29T01:06:00;5.80;;;3.90;;
22610;SDS011;11472;45.494;12.142;2022-07-29T01:07:02;5.80;;;3.90;;
22610;SDS011;11472;45.494;12.142;2022-07-29T01:08:00;5.80;;;3.90;;
22610;SDS011;11472;45.494;12.142;2022-07-29T01:09:00;5.80;;;3.90;;
22610;SDS011;11472;45.494;12.142;2022-07-29T01:10:03;5.80;;;3.90;;
22610;SDS011;11472;45.494;12.142;2022-07-29T01:11:00;5.80;;;3.90;;
22610;SDS011;11472;45.494;12.142;2022-07-29T01:12:01;5.80;;;3.90;;
22610;SDS011;11472;45.494;12.142;2022-07-29T01:13:01;5.80;;;3.90;;
22610;SDS011;11472;45.494;12.142;2022-07-29T01:14:00;5.80;;;3.90;;
22610;SDS011;11472;45.494;12.142;2022-07-29T01:15:05;5.80;;;3.90;;
22610;SDS011;11472;45.494;12.142;2022-07-29T01:16:09;5.80;;;3.90;;
22610;SDS011;11472;45.494;12.142;2022-07-29T01:17:06;5.80;;;3.90;;
22610;SDS011;11472;45.494;12.142;2022-07-29T01:18:11;5.80;;;3.90;;
22610;SDS011;11472;45.494;12.142;2022-07-29T01:19:07;3.80;;;3.10;;
22610;SDS011;11472;45.494;12.142;2022-07-29T01:22:08;3.80;;;3.10;;
22610;SDS011;11472;45.494;12.142;2022-07-29T01:27:17;3.80;;;3.10;;
22610;SDS011;11472;45.494;12.142;2022-07-29T01:30:01;3.80;;;3.10;;
22610;SDS011;11472;45.494;12.142;2022-07-29T01:31:01;3.80;;;3.10;;
22610;SDS011;11472;45.494;12.142;2022-07-29T01:32:02;3.80;;;3.10;;
22610;SDS011;11472;45.494;12.142;2022-07-29T01:33:06;3.80;;;3.10;;
22610;SDS011;11472;45.494;12.142;2022-07-29T01:34:03;5.50;;;2.80;;
22610;SDS011;11472;45.494;12.142;2022-07-29T01:35:15;5.50;;;2.80;;
22610;SDS011;11472;45.494;12.142;2022-07-29T01:36:03;5.50;;;2.80;;
22610;SDS011;11472;45.494;12.142;2022-07-29T01:37:06;5.50;;;2.80;;
22610;SDS011;11472;45.494;12.142;2022-07-29T01:38:06;5.50;;;2.80;;
22610;SDS011;11472;45.494;12.142;2022-07-29T01:39:08;5.50;;;2.80;;
22610;SDS011;11472;45.494;12.142;2022-07-29T01:40:02;5.50;;;2.80;;
22610;SDS011;11472;45.494;12.142;2022-07-29T01:41:05;5.50;;;2.80;;
22610;SDS011;11472;45.494;12.142;2022-07-29T01:43:03;5.50;;;2.80;;
22610;SDS011;11472;45.494;12.142;2022-07-29T01:44:09;5.50;;;2.80;;
22610;SDS011;11472;45.494;12.142;2022-07-29T01:45:12;5.50;;;2.80;;
22610;SDS011;11472;45.494;12.142;2022-07-29T01:46:04;5.50;;;2.80;;
22610;SDS011;11472;45.494;12.142;2022-07-29T01:47:05;5.50;;;2.80;;
22610;SDS011;11472;45.494;12.142;2022-07-29T01:49:08;5.00;;;2.70;;
22610;SDS011;11472;45.494;12.142;2022-07-29T01:50:00;5.00;;;2.70;;
22610;SDS011;11472;45.494;12.142;2022-07-29T01:51:05;5.00;;;2.70;;
22610;SDS011;11472;45.494;12.142;2022-07-29T01:52:03;5.00;;;2.70;;
22610;SDS011;11472;45.494;12.142;2022-07-29T01:53:04;5.00;;;2.70;;
22610;SDS011;11472;45.494;12.142;2022-07-29T01:54:13;5.00;;;2.70;;
22610;SDS011;11472;45.494;12.142;2022-07-29T01:55:04;5.00;;;2.70;;
22610;SDS011;11472;45.494;12.142;2022-07-29T01:56:00;5.00;;;2.70;;
22610;SDS011;11472;45.494;12.142;2022-07-29T01:57:00;5.00;;;2.70;;
22610;SDS011;11472;45.494;12.142;2022-07-29T01:58:00;5.00;;;2.70;;
22610;SDS011;11472;45.494;12.142;2022-07-29T01:59:01;5.00;;;2.70;;
22610;SDS011;11472;45.494;12.142;2022-07-29T02:00:01;5.00;;;2.70;;
22610;SDS011;11472;45.494;12.142;2022-07-29T02:01:00;5.00;;;2.70;;
22610;SDS011;11472;45.494;12.142;2022-07-29T02:02:02;5.00;;;2.70;;
22610;SDS011;11472;45.494;12.142;2022-07-29T02:03:02;5.00;;;2.70;;
22610;SDS011;11472;45.494;12.142;2022-07-29T02:04:03;6.90;;;3.00;;
22610;SDS011;11472;45.494;12.142;2022-07-29T02:05:00;6.90;;;3.00;;
22610;SDS011;11472;45.494;12.142;2022-07-29T02:06:00;6.90;;;3.00;;
22610;SDS011;11472;45.494;12.142;2022-07-29T02:07:05;6.90;;;3.00;;
22610;SDS011;11472;45.494;12.142;2022-07-29T02:08:01;6.90;;;3.00;;
22610;SDS011;11472;45.494;12.142;2022-07-29T02:09:00;6.90;;;3.00;;
22610;SDS011;11472;45.494;12.142;2022-07-29T02:10:01;6.90;;;3.00;;
22610;SDS011;11472;45.494;12.142;2022-07-29T02:11:00;6.90;;;3.00;;
22610;SDS011;11472;45.494;12.142;2022-07-29T02:12:02;6.90;;;3.00;;
22610;SDS011;11472;45.494;12.142;2022-07-29T02:13:00;6.90;;;3.00;;
22610;SDS011;11472;45.494;12.142;2022-07-29T02:14:00;6.90;;;3.00;;
22610;SDS011;11472;45.494;12.142;2022-07-29T02:15:02;6.90;;;3.00;;
22610;SDS011;11472;45.494;12.142;2022-07-29T02:16:01;6.90;;;3.00;;
22610;SDS011;11472;45.494;12.142;2022-07-29T02:17:00;6.90;;;3.00;;
22610;SDS011;11472;45.494;12.142;2022-07-29T02:18:05;6.90;;;3.00;;
22610;SDS011;11472;45.494;12.142;2022-07-29T02:19:01;6.30;;;2.70;;
22610;SDS011;11472;45.494;12.142;2022-07-29T02:20:01;6.30;;;2.70;;
22610;SDS011;11472;45.494;12.142;2022-07-29T02:21:00;6.30;;;2.70;;
22610;SDS011;11472;45.494;12.142;2022-07-29T02:22:01;6.30;;;2.70;;
22610;SDS011;11472;45.494;12.142;2022-07-29T02:23:00;6.30;;;2.70;;
22610;SDS011;11472;45.494;12.142;2022-07-29T02:24:01;6.30;;;2.70;;
22610;SDS011;11472;45.494;12.142;2022-07-29T02:25:01;6.30;;;2.70;;
22610;SDS011;11472;45.494;12.142;2022-07-29T02:26:00;6.30;;;2.70;;
22610;SDS011;11472;45.494;12.142;2022-07-29T02:27:00;6.30;;;2.70;;
22610;SDS011;11472;45.494;12.142;2022-07-29T02:28:01;6.30;;;2.70;;
22610;SDS011;11472;45.494;12.142;2022-07-29T02:29:00;6.30;;;2.70;;
22610;SDS011;11472;45.494;12.142;2022-07-29T02:30:01;6.30;;;2.70;;
22610;SDS011;11472;45.494;12.142;2022-07-29T02:31:02;6.30;;;2.70;;
22610;SDS011;11472;45.494;12.142;2022-07-29T02:32:00;6.30;;;2.70;;
22610;SDS011;11472;45.494;12.142;2022-07-29T02:33:00;6.30;;;2.70;;
22610;SDS011;11472;45.494;12.142;2022-07-29T02:34:02;5.20;;;3.40;;
22610;SDS011;11472;45.494;12.142;2022-07-29T02:35:01;5.20;;;3.40;;
22610;SDS011;11472;45.494;12.142;2022-07-29T02:36:00;5.20;;;3.40;;
22610;SDS011;11472;45.494;12.142;2022-07-29T02:37:00;5.20;;;3.40;;
22610;SDS011;11472;45.494;12.142;2022-07-29T02:38:12;5.20;;;3.40;;
22610;SDS011;11472;45.494;12.142;2022-07-29T02:39:01;5.20;;;3.40;;
22610;SDS011;11472;45.494;12.142;2022-07-29T02:40:00;5.20;;;3.40;;
22610;SDS011;11472;45.494;12.142;2022-07-29T02:41:03;5.20;;;3.40;;
22610;SDS011;11472;45.494;12.142;2022-07-29T02:42:05;5.20;;;3.40;;
22610;SDS011;11472;45.494;12.142;2022-07-29T02:43:02;5.20;;;3.40;;
22610;SDS011;11472;45.494;12.142;2022-07-29T02:44:09;5.20;;;3.40;;
22610;SDS011;11472;45.494;12.142;2022-07-29T02:45:00;5.20;;;3.40;;
22610;SDS011;11472;45.494;12.142;2022-07-29T02:46:02;5.20;;;3.40;;
22610;SDS011;11472;45.494;12.142;2022-07-29T02:48:05;5.20;;;3.40;;
22610;SDS011;11472;45.494;12.142;2022-07-29T02:49:09;6.80;;;3.60;;
22610;SDS011;11472;45.494;12.142;2022-07-29T02:50:04;6.80;;;3.60;;
22610;SDS011;11472;45.494;12.142;2022-07-29T02:51:05;6.80;;;3.60;;
22610;SDS011;11472;45.494;12.142;2022-07-29T02:52:04;6.80;;;3.60;;
22610;SDS011;11472;45.494;12.142;2022-07-29T02:53:12;6.80;;;3.60;;
22610;SDS011;11472;45.494;12.142;2022-07-29T02:54:01;6.80;;;3.60;;
22610;SDS011;11472;45.494;12.142;2022-07-29T02:55:07;6.80;;;3.60;;
22610;SDS011;11472;45.494;12.142;2022-07-29T02:56:04;6.80;;;3.60;;
22610;SDS011;11472;45.494;12.142;2022-07-29T02:57:02;6.80;;;3.60;;
22610;SDS011;11472;45.494;12.142;2022-07-29T02:58:09;6.80;;;3.60;;
22610;SDS011;11472;45.494;12.142;2022-07-29T02:59:03;6.80;;;3.60;;
22610;SDS011;11472;45.494;12.142;2022-07-29T03:00:06;6.80;;;3.60;;
22610;SDS011;11472;45.494;12.142;2022-07-29T03:01:03;6.80;;;3.60;;
22610;SDS011;11472;45.494;12.142;2022-07-29T03:02:00;6.80;;;3.60;;
22610;SDS011;11472;45.494;12.142;2022-07-29T03:03:01;6.80;;;3.60;;
22610;SDS011;11472;45.494;12.142;2022-07-29T03:04:01;5.70;;;3.70;;
22610;SDS011;11472;45.494;12.142;2022-07-29T03:05:01;5.70;;;3.70;;
22610;SDS011;11472;45.494;12.142;2022-07-29T03:06:01;5.70;;;3.70;;
22610;SDS011;11472;45.494;12.142;2022-07-29T03:07:00;5.70;;;3.70;;
22610;SDS011;11472;45.494;12.142;2022-07-29T03:08:02;5.70;;;3.70;;
22610;SDS011;11472;45.494;12.142;2022-07-29T03:09:00;5.70;;;3.70;;
22610;SDS011;11472;45.494;12.142;2022-07-29T03:10:00;5.70;;;3.70;;
22610;SDS011;11472;45.494;12.142;2022-07-29T03:11:01;5.70;;;3.70;;
22610;SDS011;11472;45.494;12.142;2022-07-29T03:12:00;5.70;;;3.70;;
22610;SDS011;11472;45.494;12.142;2022-07-29T03:13:00;5.70;;;3.70;;
22610;SDS011;11472;45.494;12.142;2022-07-29T03:14:00;5.70;;;3.70;;
22610;SDS011;11472;45.494;12.142;2022-07-29T03:15:03;5.70;;;3.70;;
22610;SDS011;11472;45.494;12.142;2022-07-29T03:16:00;5.70;;;3.70;;
22610;SDS011;11472;45.494;12.142;2022-07-29T03:17:00;5.70;;;3.70;;
22610;SDS011;11472;45.494;12.142;2022-07-29T03:18:00;5.70;;;3.70;;
22610;SDS011;11472;45.494;12.142;2022-07-29T03:19:00;4.40;;;3.40;;
22610;SDS011;11472;45.494;12.142;2022-07-29T03:20:01;4.40;;;3.40;;
22610;SDS011;11472;45.494;12.142;2022-07-29T03:21:00;4.40;;;3.40;;
22610;SDS011;11472;45.494;12.142;2022-07-29T03:22:00;4.40;;;3.40;;
22610;SDS011;11472;45.494;12.142;2022-07-29T03:23:00;4.40;;;3.40;;
22610;SDS011;11472;45.494;12.142;2022-07-29T03:24:00;4.40;;;3.40;;
22610;SDS011;11472;45.494;12.142;2022-07-29T03:25:08;4.40;;;3.40;;
22610;SDS011;11472;45.494;12.142;2022-07-29T03:26:00;4.40;;;3.40;;
22610;SDS011;11472;45.494;12.142;2022-07-29T03:27:01;4.40;;;3.40;;
22610;SDS011;11472;45.494;12.142;2022-07-29T03:28:00;4.40;;;3.40;;
22610;SDS011;11472;45.494;12.142;2022-07-29T03:29:00;4.40;;;3.40;;
22610;SDS011;11472;45.494;12.142;2022-07-29T03:30:00;4.40;;;3.40;;
22610;SDS011;11472;45.494;12.142;2022-07-29T03:31:01;4.40;;;3.40;;
22610;SDS011;11472;45.494;12.142;2022-07-29T03:32:03;4.40;;;3.40;;
22610;SDS011;11472;45.494;12.142;2022-07-29T03:33:00;4.40;;;3.40;;
22610;SDS011;11472;45.494;12.142;2022-07-29T03:34:00;4.20;;;3.10;;
22610;SDS011;11472;45.494;12.142;2022-07-29T03:35:00;4.20;;;3.10;;
22610;SDS011;11472;45.494;12.142;2022-07-29T03:36:02;4.20;;;3.10;;
22610;SDS011;11472;45.494;12.142;2022-07-29T03:37:00;4.20;;;3.10;;
22610;SDS011;11472;45.494;12.142;2022-07-29T03:38:00;4.20;;;3.10;;
22610;SDS011;11472;45.494;12.142;2022-07-29T03:39:00;4.20;;;3.10;;
22610;SDS011;11472;45.494;12.142;2022-07-29T03:40:02;4.20;;;3.10;;
22610;SDS011;11472;45.494;12.142;2022-07-29T03:41:04;4.20;;;3.10;;
22610;SDS011;11472;45.494;12.142;2022-07-29T03:42:00;4.20;;;3.10;;
22610;SDS011;11472;45.494;12.142;2022-07-29T03:43:00;4.20;;;3.10;;
22610;SDS011;11472;45.494;12.142;2022-07-29T03:44:00;4.20;;;3.10;;
22610;SDS011;11472;45.494;12.142;2022-07-29T03:45:03;4.20;;;3.10;;
22610;SDS011;11472;45.494;12.142;2022-07-29T03:46:00;4.20;;;3.10;;
22610;SDS011;11472;45.494;12.142;2022-07-29T03:47:01;4.20;;;3.10;;
22610;SDS011;11472;45.494;12.142;2022-07-29T03:48:05;4.20;;;3.10;;
22610;SDS011;11472;45.494;12.142;2022-07-29T03:49:01;5.60;;;3.60;;
22610;SDS011;11472;45.494;12.142;2022-07-29T03:50:04;5.60;;;3.60;;
22610;SDS011;11472;45.494;12.142;2022-07-29T03:51:00;5.60;;;3.60;;
22610;SDS011;11472;45.494;12.142;2022-07-29T03:52:00;5.60;;;3.60;;
22610;SDS011;11472;45.494;12.142;2022-07-29T03:53:01;5.60;;;3.60;;
22610;SDS011;11472;45.494;12.142;2022-07-29T03:54:05;5.60;;;3.60;;
22610;SDS011;11472;45.494;12.142;2022-07-29T03:55:01;5.60;;;3.60;;
22610;SDS011;11472;45.494;12.142;2022-07-29T03:56:00;5.60;;;3.60;;
22610;SDS011;11472;45.494;12.142;2022-07-29T03:57:01;5.60;;;3.60;;
22610;SDS011;11472;45.494;12.142;2022-07-29T03:58:00;5.60;;;3.60;;
22610;SDS011;11472;45.494;12.142;2022-07-29T03:59:00;5.60;;;3.60;;
22610;SDS011;11472;45.494;12.142;2022-07-29T04:00:01;5.60;;;3.60;;
22610;SDS011;11472;45.494;12.142;2022-07-29T04:01:00;5.60;;;3.60;;
22610;SDS011;11472;45.494;12.142;2022-07-29T04:02:03;5.60;;;3.60;;
22610;SDS011;11472;45.494;12.142;2022-07-29T04:03:01;5.60;;;3.60;;
22610;SDS011;11472;45.494;12.142;2022-07-29T04:04:01;8.20;;;4.10;;
22610;SDS011;11472;45.494;12.142;2022-07-29T04:05:00;8.20;;;4.10;;
22610;SDS011;11472;45.494;12.142;2022-07-29T04:06:02;8.20;;;4.10;;
22610;SDS011;11472;45.494;12.142;2022-07-29T04:07:00;8.20;;;4.10;;
22610;SDS011;11472;45.494;12.142;2022-07-29T04:08:01;8.20;;;4.10;;
22610;SDS011;11472;45.494;12.142;2022-07-29T04:09:00;8.20;;;4.10;;
22610;SDS011;11472;45.494;12.142;2022-07-29T04:10:00;8.20;;;4.10;;
22610;SDS011;11472;45.494;12.142;2022-07-29T04:11:01;8.20;;;4.10;;
22610;SDS011;11472;45.494;12.142;2022-07-29T04:12:04;8.20;;;4.10;;
22610;SDS011;11472;45.494;12.142;2022-07-29T04:13:00;8.20;;;4.10;;
22610;SDS011;11472;45.494;12.142;2022-07-29T04:14:00;8.20;;;4.10;;
22610;SDS011;11472;45.494;12.142;2022-07-29T04:15:02;8.20;;;4.10;;
22610;SDS011;11472;45.494;12.142;2022-07-29T04:16:00;8.20;;;4.10;;
22610;SDS011;11472;45.494;12.142;2022-07-29T04:17:01;8.20;;;4.10;;
22610;SDS011;11472;45.494;12.142;2022-07-29T04:18:00;8.20;;;4.10;;
22610;SDS011;11472;45.494;12.142;2022-07-29T04:19:00;5.70;;;4.40;;
22610;SDS011;11472;45.494;12.142;2022-07-29T04:20:00;5.70;;;4.40;;
22610;SDS011;11472;45.494;12.142;2022-07-29T04:21:01;5.70;;;4.40;;
22610;SDS011;11472;45.494;12.142;2022-07-29T04:22:00;5.70;;;4.40;;
22610;SDS011;11472;45.494;12.142;2022-07-29T04:23:00;5.70;;;4.40;;
22610;SDS011;11472;45.494;12.142;2022-07-29T04:24:00;5.70;;;4.40;;
22610;SDS011;11472;45.494;12.142;2022-07-29T04:25:04;5.70;;;4.40;;
22610;SDS011;11472;45.494;12.142;2022-07-29T04:26:01;5.70;;;4.40;;
22610;SDS011;11472;45.494;12.142;2022-07-29T04:27:00;5.70;;;4.40;;
22610;SDS011;11472;45.494;12.142;2022-07-29T04:28:00;5.70;;;4.40;;
22610;SDS011;11472;45.494;12.142;2022-07-29T04:29:00;5.70;;;4.40;;
22610;SDS011;11472;45.494;12.142;2022-07-29T04:30:00;5.70;;;4.40;;
22610;SDS011;11472;45.494;12.142;2022-07-29T04:31:00;5.70;;;4.40;;
22610;SDS011;11472;45.494;12.142;2022-07-29T04:32:00;5.70;;;4.40;;
22610;SDS011;11472;45.494;12.142;2022-07-29T04:33:02;5.70;;;4.40;;
22610;SDS011;11472;45.494;12.142;2022-07-29T04:34:00;7.50;;;4.80;;
22610;SDS011;11472;45.494;12.142;2022-07-29T04:35:00;7.50;;;4.80;;
22610;SDS011;11472;45.494;12.142;2022-07-29T04:36:01;7.50;;;4.80;;
22610;SDS011;11472;45.494;12.142;2022-07-29T04:37:00;7.50;;;4.80;;
22610;SDS011;11472;45.494;12.142;2022-07-29T04:38:00;7.50;;;4.80;;
22610;SDS011;11472;45.494;12.142;2022-07-29T04:39:01;7.50;;;4.80;;
22610;SDS011;11472;45.494;12.142;2022-07-29T04:40:00;7.50;;;4.80;;
22610;SDS011;11472;45.494;12.142;2022-07-29T04:41:00;7.50;;;4.80;;
22610;SDS011;11472;45.494;12.142;2022-07-29T04:42:01;7.50;;;4.80;;
22610;SDS011;11472;45.494;12.142;2022-07-29T04:43:00;7.50;;;4.80;;
22610;SDS011;11472;45.494;12.142;2022-07-29T04:44:04;7.50;;;4.80;;
22610;SDS011;11472;45.494;12.142;2022-07-29T04:45:01;7.50;;;4.80;;
22610;SDS011;11472;45.494;12.142;2022-07-29T04:46:02;7.50;;;4.80;;
22610;SDS011;11472;45.494;12.142;2022-07-29T04:47:00;7.50;;;4.80;;
22610;SDS011;11472;45.494;12.142;2022-07-29T04:48:00;7.50;;;4.80;;
22610;SDS011;11472;45.494;12.142;2022-07-29T04:49:01;8.30;;;4.10;;
22610;SDS011;11472;45.494;12.142;2022-07-29T04:50:00;8.30;;;4.10;;
22610;SDS011;11472;45.494;12.142;2022-07-29T04:51:00;8.30;;;4.10;;
22610;SDS011;11472;45.494;12.142;2022-07-29T04:52:00;8.30;;;4.10;;
22610;SDS011;11472;45.494;12.142;2022-07-29T04:53:00;8.30;;;4.10;;
22610;SDS011;11472;45.494;12.142;2022-07-29T04:54:00;8.30;;;4.10;;
22610;SDS011;11472;45.494;12.142;2022-07-29T04:55:01;8.30;;;4.10;;
22610;SDS011;11472;45.494;12.142;2022-07-29T04:56:00;8.30;;;4.10;;
22610;SDS011;11472;45.494;12.142;2022-07-29T04:57:00;8.30;;;4.10;;
22610;SDS011;11472;45.494;12.142;2022-07-29T04:58:00;8.30;;;4.10;;
22610;SDS011;11472;45.494;12.142;2022-07-29T04:59:00;8.30;;;4.10;;
22610;SDS011;11472;45.494;12.142;2022-07-29T05:00:00;8.30;;;4.10;;
22610;SDS011;11472;45.494;12.142;2022-07-29T05:01:00;8.30;;;4.10;;
22610;SDS011;11472;45.494;12.142;2022-07-29T05:02:00;8.30;;;4.10;;
22610;SDS011;11472;45.494;12.142;2022-07-29T05:03:00;8.30;;;4.10;;
22610;SDS011;11472;45.494;12.142;2022-07-29T05:04:01;6.10;;;4.80;;
22610;SDS011;11472;45.494;12.142;2022-07-29T05:05:00;6.10;;;4.80;;
22610;SDS011;11472;45.494;12.142;2022-07-29T05:06:00;6.10;;;4.80;;
22610;SDS011;11472;45.494;12.142;2022-07-29T05:07:00;6.10;;;4.80;;
22610;SDS011;11472;45.494;12.142;2022-07-29T05:08:00;6.10;;;4.80;;
22610;SDS011;11472;45.494;12.142;2022-07-29T05:09:00;6.10;;;4.80;;
22610;SDS011;11472;45.494;12.142;2022-07-29T05:10:00;6.10;;;4.80;;
22610;SDS011;11472;45.494;12.142;2022-07-29T05:11:10;6.10;;;4.80;;
22610;SDS011;11472;45.494;12.142;2022-07-29T05:12:00;6.10;;;4.80;;
22610;SDS011;11472;45.494;12.142;2022-07-29T05:13:00;6.10;;;4.80;;
22610;SDS011;11472;45.494;12.142;2022-07-29T05:14:00;6.10;;;4.80;;
22610;SDS011;11472;45.494;12.142;2022-07-29T05:15:00;6.10;;;4.80;;
22610;SDS011;11472;45.494;12.142;2022-07-29T05:16:00;6.10;;;4.80;;
22610;SDS011;11472;45.494;12.142;2022-07-29T05:17:00;6.10;;;4.80;;
22610;SDS011;11472;45.494;12.142;2022-07-29T05:18:00;6.10;;;4.80;;
22610;SDS011;11472;45.494;12.142;2022-07-29T05:19:00;9.60;;;4.60;;
22610;SDS011;11472;45.494;12.142;2022-07-29T05:20:00;9.60;;;4.60;;
22610;SDS011;11472;45.494;12.142;2022-07-29T05:21:00;9.60;;;4.60;;
22610;SDS011;11472;45.494;12.142;2022-07-29T05:22:00;9.60;;;4.60;;
22610;SDS011;11472;45.494;12.142;2022-07-29T05:23:01;9.60;;;4.60;;
22610;SDS011;11472;45.494;12.142;2022-07-29T05:24:01;9.60;;;4.60;;
22610;SDS011;11472;45.494;12.142;2022-07-29T05:25:03;9.60;;;4.60;;
22610;SDS011;11472;45.494;12.142;2022-07-29T05:26:00;9.60;;;4.60;;
22610;SDS011;11472;45.494;12.142;2022-07-29T05:27:00;9.60;;;4.60;;
22610;SDS011;11472;45.494;12.142;2022-07-29T05:28:00;9.60;;;4.60;;
22610;SDS011;11472;45.494;12.142;2022-07-29T05:29:00;9.60;;;4.60;;
22610;SDS011;11472;45.494;12.142;2022-07-29T05:30:00;9.60;;;4.60;;
22610;SDS011;11472;45.494;12.142;2022-07-29T05:31:00;9.60;;;4.60;;
22610;SDS011;11472;45.494;12.142;2022-07-29T05:32:00;9.60;;;4.60;;
22610;SDS011;11472;45.494;12.142;2022-07-29T05:33:00;9.60;;;4.60;;
22610;SDS011;11472;45.494;12.142;2022-07-29T05:34:00;9.60;;;4.60;;
22610;SDS011;11472;45.494;12.142;2022-07-29T05:35:00;8.50;;;4.60;;
22610;SDS011;11472;45.494;12.142;2022-07-29T05:36:01;8.50;;;4.60;;
22610;SDS011;11472;45.494;12.142;2022-07-29T05:37:00;8.50;;;4.60;;
22610;SDS011;11472;45.494;12.142;2022-07-29T05:38:00;8.50;;;4.60;;
22610;SDS011;11472;45.494;12.142;2022-07-29T05:39:00;8.50;;;4.60;;
22610;SDS011;11472;45.494;12.142;2022-07-29T05:40:02;8.50;;;4.60;;
22610;SDS011;11472;45.494;12.142;2022-07-29T05:41:00;8.50;;;4.60;;
22610;SDS011;11472;45.494;12.142;2022-07-29T05:42:00;8.50;;;4.60;;
22610;SDS011;11472;45.494;12.142;2022-07-29T05:43:00;8.50;;;4.60;;
22610;SDS011;11472;45.494;12.142;2022-07-29T05:44:00;8.50;;;4.60;;
22610;SDS011;11472;45.494;12.142;2022-07-29T05:45:01;8.50;;;4.60;;
22610;SDS011;11472;45.494;12.142;2022-07-29T05:46:00;8.50;;;4.60;;
22610;SDS011;11472;45.494;12.142;2022-07-29T05:47:02;8.50;;;4.60;;
22610;SDS011;11472;45.494;12.142;2022-07-29T05:48:00;8.50;;;4.60;;
22610;SDS011;11472;45.494;12.142;2022-07-29T05:49:01;8.50;;;4.60;;
22610;SDS011;11472;45.494;12.142;2022-07-29T05:50:00;7.10;;;4.60;;
22610;SDS011;11472;45.494;12.142;2022-07-29T05:51:00;7.10;;;4.60;;
22610;SDS011;11472;45.494;12.142;2022-07-29T05:52:00;7.10;;;4.60;;
22610;SDS011;11472;45.494;12.142;2022-07-29T05:53:00;7.10;;;4.60;;
22610;SDS011;11472;45.494;12.142;2022-07-29T05:54:00;7.10;;;4.60;;
22610;SDS011;11472;45.494;12.142;2022-07-29T05:55:04;7.10;;;4.60;;
22610;SDS011;11472;45.494;12.142;2022-07-29T05:56:03;7.10;;;4.60;;
22610;SDS011;11472;45.494;12.142;2022-07-29T05:57:00;7.10;;;4.60;;
22610;SDS011;11472;45.494;12.142;2022-07-29T05:58:00;7.10;;;4.60;;
22610;SDS011;11472;45.494;12.142;2022-07-29T05:59:00;7.10;;;4.60;;
22610;SDS011;11472;45.494;12.142;2022-07-29T06:00:00;7.10;;;4.60;;
22610;SDS011;11472;45.494;12.142;2022-07-29T06:01:00;7.10;;;4.60;;
22610;SDS011;11472;45.494;12.142;2022-07-29T06:02:00;7.10;;;4.60;;
22610;SDS011;11472;45.494;12.142;2022-07-29T06:03:01;7.10;;;4.60;;
22610;SDS011;11472;45.494;12.142;2022-07-29T06:04:00;7.10;;;4.60;;
22610;SDS011;11472;45.494;12.142;2022-07-29T06:05:00;8.20;;;4.60;;
22610;SDS011;11472;45.494;12.142;2022-07-29T06:06:00;8.20;;;4.60;;